createdAt,value
2018-06-08T00:00:02.164Z,10.97
2018-06-08T00:02:30.732Z,11.37
2018-06-08T00:04:59.405Z,10.60
2018-06-08T00:07:27.796Z,11.67
2018-06-08T00:09:56.438Z,13.33
2018-06-08T00:12:25.086Z,11.07
2018-06-08T00:14:53.590Z,12.70
2018-06-08T00:17:22.313Z,10.30
2018-06-08T00:19:50.934Z,12.00
2018-06-08T00:22:19.478Z,11.47
2018-06-08T00:24:48.282Z,13.33
2018-06-08T00:27:17.006Z,13.30
2018-06-08T00:29:45.614Z,12.57
2018-06-08T00:32:14.168Z,11.50
2018-06-08T00:34:42.849Z,10.83
2018-06-08T00:37:11.609Z,9.23
2018-06-08T00:39:40.436Z,9.50
2018-06-08T00:42:09.208Z,10.00
2018-06-08T00:44:37.876Z,9.30
2018-06-08T00:47:06.590Z,10.30
2018-06-08T00:49:35.172Z,10.10
2018-06-08T00:52:03.820Z,9.73
2018-06-08T00:54:32.508Z,9.70
2018-06-08T00:57:08.381Z,11.97
2018-06-08T00:59:37.032Z,9.77
2018-06-08T01:02:05.684Z,10.63
2018-06-08T01:04:34.427Z,9.87
2018-06-08T01:07:03.096Z,10.53
2018-06-08T01:09:31.870Z,10.33
2018-06-08T01:12:00.600Z,10.50
2018-06-08T01:14:32.688Z,10.90
2018-06-08T01:17:01.521Z,10.53
2018-06-08T01:19:34.396Z,10.70
2018-06-08T01:22:03.244Z,12.33
2018-06-08T01:24:32.582Z,9.73
2018-06-08T01:27:01.210Z,11.60
2018-06-08T01:29:29.830Z,11.90
2018-06-08T01:31:58.514Z,13.20
2018-06-08T01:34:27.128Z,11.93
2018-06-08T01:36:55.716Z,12.80
2018-06-08T01:39:24.395Z,13.40
2018-06-08T01:41:53.158Z,11.20
2018-06-08T01:44:21.799Z,13.00
2018-06-08T01:46:50.332Z,11.10
2018-06-08T01:49:19.006Z,10.43
2018-06-08T01:51:47.735Z,11.50
2018-06-08T01:54:16.367Z,10.20
2018-06-08T01:56:45.078Z,13.10
2018-06-08T01:59:13.722Z,12.00
2018-06-08T02:01:42.356Z,12.90
2018-06-08T02:04:11.070Z,12.00
2018-06-08T02:06:39.802Z,12.00
2018-06-08T02:09:08.598Z,10.93
2018-06-08T02:11:37.115Z,11.40
2018-06-08T02:14:05.952Z,13.00
2018-06-08T02:16:34.572Z,11.03
2018-06-08T02:19:03.188Z,12.00
2018-06-08T02:21:31.705Z,13.03
2018-06-08T02:24:00.357Z,12.50
2018-06-08T02:26:28.911Z,14.20
2018-06-08T02:28:57.600Z,11.07
2018-06-08T02:31:26.318Z,13.17
2018-06-08T02:33:55.077Z,13.10
2018-06-08T02:36:23.861Z,11.30
2018-06-08T02:38:52.643Z,13.23
2018-06-08T02:41:21.443Z,11.60
2018-06-08T02:43:49.861Z,12.80
2018-06-08T02:46:18.580Z,13.27
2018-06-08T02:48:47.318Z,12.73
2018-06-08T02:51:15.901Z,12.27
2018-06-08T02:53:44.474Z,13.43
2018-06-08T02:56:12.853Z,12.93
2018-06-08T02:58:41.579Z,12.07
2018-06-08T03:01:10.307Z,14.17
2018-06-08T03:03:38.999Z,14.47
2018-06-08T03:06:07.568Z,13.40
2018-06-08T03:08:36.150Z,13.80
2018-06-08T03:11:04.964Z,13.20
2018-06-08T03:13:33.711Z,13.57
2018-06-08T03:16:02.460Z,12.50
2018-06-08T03:18:30.811Z,14.30
2018-06-08T03:21:00.057Z,15.10
2018-06-08T03:23:28.671Z,14.20
2018-06-08T03:25:57.220Z,11.80
2018-06-08T03:28:25.895Z,13.17
2018-06-08T03:30:54.327Z,12.00
2018-06-08T03:33:22.962Z,11.77
2018-06-08T03:35:51.539Z,14.17
2018-06-08T03:38:20.173Z,14.13
2018-06-08T03:40:48.816Z,13.13
2018-06-08T03:43:17.562Z,13.00
2018-06-08T03:45:46.598Z,14.13
2018-06-08T03:48:15.673Z,12.63
2018-06-08T03:50:44.800Z,11.17
2018-06-08T03:53:14.162Z,12.10
2018-06-08T03:55:43.208Z,11.07
2018-06-08T03:58:12.467Z,12.70
2018-06-08T04:00:41.510Z,13.40
2018-06-08T04:03:10.572Z,13.70
2018-06-08T04:05:39.600Z,12.53
2018-06-08T04:08:09.031Z,13.10
2018-06-08T04:10:38.467Z,11.87
2018-06-08T04:13:07.912Z,12.83
2018-06-08T04:15:37.558Z,12.90
2018-06-08T04:18:07.411Z,11.93
2018-06-08T04:20:37.083Z,14.43
2018-06-08T04:23:06.391Z,14.40
2018-06-08T04:25:35.811Z,12.50
2018-06-08T04:28:05.653Z,11.30
2018-06-08T04:33:22.030Z,13.80
2018-06-08T04:35:51.641Z,12.03
2018-06-08T04:38:21.359Z,13.30
2018-06-08T04:40:50.264Z,10.33
2018-06-08T04:43:19.176Z,12.23
2018-06-08T04:45:48.140Z,12.53
2018-06-08T04:48:16.816Z,12.07
2018-06-08T04:50:45.666Z,12.27
2018-06-08T04:53:14.546Z,13.27
2018-06-08T04:55:43.174Z,12.87
2018-06-08T04:58:11.980Z,14.00
2018-06-08T05:00:40.768Z,13.53
2018-06-08T05:03:09.564Z,13.83
2018-06-08T05:05:38.802Z,12.57
2018-06-08T05:08:07.556Z,12.30
2018-06-08T05:10:36.339Z,13.83
2018-06-08T05:13:05.111Z,14.13
2018-06-08T05:15:33.932Z,12.67
2018-06-08T05:18:02.960Z,11.53
2018-06-08T05:20:31.199Z,11.30
2018-06-08T05:22:59.878Z,12.73
2018-06-08T05:25:28.505Z,12.80
2018-06-08T05:27:59.818Z,12.37
2018-06-08T05:30:28.982Z,13.00
2018-06-08T05:32:57.790Z,13.80
2018-06-08T05:35:26.926Z,13.50
2018-06-08T05:37:55.595Z,12.60
2018-06-08T05:40:24.348Z,13.60
2018-06-08T05:42:53.257Z,12.63
2018-06-08T05:45:22.064Z,11.67
2018-06-08T05:47:51.331Z,12.57
2018-06-08T05:50:20.566Z,12.20
2018-06-08T05:52:49.329Z,11.30
2018-06-08T05:55:17.954Z,11.97
2018-06-08T05:57:46.836Z,11.03
2018-06-08T06:00:15.689Z,11.20
2018-06-08T06:02:44.321Z,11.00
2018-06-08T06:05:12.960Z,10.93
2018-06-08T06:07:41.713Z,12.20
2018-06-08T06:10:10.408Z,13.40
2018-06-08T06:12:38.832Z,11.20
2018-06-08T06:15:07.478Z,13.00
2018-06-08T06:17:35.853Z,12.67
2018-06-08T06:20:04.494Z,11.73
2018-06-08T06:22:34.122Z,12.10
2018-06-08T06:25:04.313Z,12.30
2018-06-08T06:27:33.902Z,12.70
2018-06-08T06:30:04.064Z,13.77
2018-06-08T06:32:38.381Z,12.80
2018-06-08T06:35:08.060Z,15.03
2018-06-08T06:37:37.600Z,31.00
2018-06-08T06:40:08.992Z,16.47
2018-06-08T06:42:38.191Z,27.63
2018-06-08T06:45:07.232Z,13.00
2018-06-08T06:47:36.852Z,10.77
2018-06-08T06:50:06.736Z,9.53
2018-06-08T06:52:36.092Z,9.10
2018-06-08T06:55:05.142Z,9.27
2018-06-08T06:57:34.002Z,8.80
2018-06-08T07:00:02.440Z,9.80
2018-06-08T07:02:31.380Z,9.77
2018-06-08T07:05:00.256Z,8.67
2018-06-08T07:07:28.710Z,8.63
2018-06-08T07:09:57.586Z,8.60
2018-06-08T07:12:26.406Z,8.03
2018-06-08T07:14:55.475Z,8.00
2018-06-08T07:17:24.264Z,8.33
2018-06-08T07:19:53.077Z,9.77
2018-06-08T07:22:22.130Z,9.00
2018-06-08T07:24:51.086Z,8.50
2018-06-08T07:27:19.970Z,8.40
2018-06-08T07:29:48.748Z,7.40
2018-06-08T07:32:17.545Z,7.43
2018-06-08T07:34:46.210Z,7.50
2018-06-08T07:37:15.291Z,7.87
2018-06-08T07:39:44.072Z,7.37
2018-06-08T07:42:12.942Z,7.87
2018-06-08T07:44:41.756Z,6.70
2018-06-08T07:47:10.580Z,8.10
2018-06-08T07:49:39.617Z,8.70
2018-06-08T07:52:08.824Z,8.20
2018-06-08T07:54:37.854Z,7.30
2018-06-08T07:57:06.817Z,7.40
2018-06-08T07:59:35.814Z,7.90
2018-06-08T08:02:04.736Z,8.13
2018-06-08T08:04:33.988Z,7.30
2018-06-08T08:07:02.536Z,7.87
2018-06-08T08:09:31.185Z,7.80
2018-06-08T08:11:59.980Z,7.60
2018-06-08T08:14:28.951Z,6.97
2018-06-08T08:16:57.750Z,7.33
2018-06-08T08:19:26.451Z,7.17
2018-06-08T08:21:55.162Z,7.70
2018-06-08T08:24:23.997Z,6.70
2018-06-08T08:26:52.752Z,7.63
2018-06-08T08:29:21.625Z,7.77
2018-06-08T08:31:50.312Z,6.93
2018-06-08T08:34:19.266Z,8.23
2018-06-08T08:36:47.964Z,6.07
2018-06-08T08:39:16.867Z,7.37
2018-06-08T08:41:45.655Z,6.27
2018-06-08T08:44:14.368Z,6.47
2018-06-08T08:46:43.108Z,6.57
2018-06-08T08:49:11.470Z,6.63
2018-06-08T08:51:40.286Z,6.07
2018-06-08T08:54:08.924Z,6.37
2018-06-08T08:56:37.914Z,6.57
2018-06-08T08:59:06.744Z,5.93
2018-06-08T09:01:35.280Z,6.70
2018-06-08T09:04:05.309Z,6.00
2018-06-08T09:06:34.070Z,6.60
2018-06-08T09:09:02.964Z,6.50
2018-06-08T09:11:31.820Z,7.23
2018-06-08T09:14:00.252Z,6.30
2018-06-08T09:16:29.031Z,5.70
2018-06-08T09:18:57.718Z,5.90
2018-06-08T09:21:26.516Z,6.57
2018-06-08T09:23:55.511Z,6.90
2018-06-08T09:26:24.520Z,6.97
2018-06-08T09:28:53.481Z,6.50
2018-06-08T09:31:22.367Z,6.23
2018-06-08T09:33:51.150Z,6.10
2018-06-08T09:36:20.152Z,6.30
2018-06-08T09:38:49.070Z,6.33
2018-06-08T09:41:18.000Z,6.40
2018-06-08T09:43:46.318Z,6.13
2018-06-08T09:46:15.351Z,6.67
2018-06-08T09:48:44.169Z,5.90
2018-06-08T09:51:13.086Z,5.80
2018-06-08T09:53:41.958Z,5.97
2018-06-08T09:56:10.415Z,6.43
2018-06-08T09:58:39.071Z,6.00
2018-06-08T10:01:08.216Z,6.00
2018-06-08T10:03:36.884Z,6.67
2018-06-08T10:06:05.646Z,6.40
2018-06-08T10:08:34.396Z,6.13
2018-06-08T10:11:02.805Z,6.23
2018-06-08T10:13:31.674Z,7.07
2018-06-08T10:16:00.418Z,6.77
2018-06-08T10:18:29.130Z,6.77
2018-06-08T10:20:58.138Z,6.37
2018-06-08T10:23:27.014Z,5.90
2018-06-08T10:25:55.811Z,5.83
2018-06-08T10:31:25.460Z,6.53
2018-06-08T10:33:53.823Z,6.63
2018-06-08T10:36:22.522Z,6.83
2018-06-08T10:38:52.410Z,6.40
2018-06-08T10:41:21.226Z,6.77
2018-06-08T10:43:49.639Z,6.07
2018-06-08T10:46:18.498Z,6.87
2018-06-08T10:48:47.573Z,5.80
2018-06-08T10:51:16.283Z,6.67
2018-06-08T10:53:44.666Z,5.50
2018-06-08T10:56:13.738Z,5.97
2018-06-08T10:58:42.658Z,5.97
2018-06-08T11:01:11.451Z,5.60
2018-06-08T11:03:40.509Z,6.20
2018-06-08T11:06:09.444Z,5.80
2018-06-08T11:08:38.355Z,6.00
2018-06-08T11:11:07.371Z,5.77
2018-06-08T11:13:36.792Z,6.93
2018-06-08T11:16:05.708Z,6.63
2018-06-08T11:18:34.531Z,6.60
2018-06-08T11:21:03.582Z,7.10
2018-06-08T11:23:31.930Z,6.30
2018-06-08T11:26:00.775Z,6.50
2018-06-08T11:28:29.570Z,6.37
2018-06-08T11:30:58.445Z,5.67
2018-06-08T11:33:26.916Z,6.40
2018-06-08T11:35:55.909Z,7.63
2018-06-08T11:38:24.892Z,6.60
2018-06-08T11:40:53.707Z,7.20
2018-06-08T11:43:22.623Z,6.67
2018-06-08T11:45:52.600Z,6.33
2018-06-08T11:48:22.447Z,6.27
2018-06-08T11:50:51.939Z,6.80
2018-06-08T11:53:21.444Z,7.17
2018-06-08T11:55:50.635Z,7.00
2018-06-08T11:58:20.223Z,6.53
2018-06-08T12:00:49.509Z,7.20
2018-06-08T12:03:19.505Z,6.40
2018-06-08T12:05:49.134Z,6.47
2018-06-08T12:08:18.747Z,7.00
2018-06-08T12:10:48.734Z,6.60
2018-06-08T12:13:18.133Z,6.90
2018-06-08T12:15:48.160Z,6.37
2018-06-08T12:18:18.727Z,6.17
2018-06-08T12:20:47.439Z,6.40
2018-06-08T12:23:16.067Z,5.90
2018-06-08T12:25:44.983Z,5.83
2018-06-08T12:28:13.802Z,4.80
2018-06-08T12:30:42.538Z,4.97
2018-06-08T12:33:11.371Z,5.60
2018-06-08T12:35:40.372Z,5.47
2018-06-08T12:38:08.996Z,5.43
2018-06-08T12:40:37.366Z,5.57
2018-06-08T12:43:06.127Z,5.23
2018-06-08T12:45:34.870Z,5.37
2018-06-08T12:48:03.584Z,5.90
2018-06-08T12:50:32.314Z,5.90
2018-06-08T12:53:01.126Z,6.17
2018-06-08T12:55:29.775Z,6.20
2018-06-08T12:57:59.253Z,6.20
2018-06-08T13:00:27.864Z,6.00
2018-06-08T13:02:56.658Z,4.60
2018-06-08T13:05:25.535Z,4.47
2018-06-08T13:07:54.494Z,4.83
2018-06-08T13:10:23.108Z,5.67
2018-06-08T13:12:51.789Z,6.47
2018-06-08T13:15:20.336Z,6.40
2018-06-08T13:17:48.979Z,5.10
2018-06-08T13:20:17.642Z,5.60
2018-06-08T13:22:46.626Z,6.10
2018-06-08T13:25:15.526Z,5.80
2018-06-08T13:27:44.274Z,6.00
2018-06-08T13:30:12.862Z,6.13
2018-06-08T13:32:41.410Z,6.30
2018-06-08T13:35:10.041Z,6.20
2018-06-08T13:37:38.806Z,7.43
2018-06-08T13:40:08.260Z,5.73
2018-06-08T13:42:36.899Z,5.53
2018-06-08T13:45:05.974Z,5.67
2018-06-08T13:47:34.939Z,6.03
2018-06-08T13:50:03.738Z,5.10
2018-06-08T13:52:33.486Z,5.00
2018-06-08T13:55:02.313Z,5.67
2018-06-08T13:57:30.963Z,5.50
2018-06-08T13:59:59.613Z,6.00
2018-06-08T14:02:28.437Z,5.90
2018-06-08T14:04:57.389Z,5.73
2018-06-08T14:07:26.230Z,5.10
2018-06-08T14:09:54.903Z,5.90
2018-06-08T14:12:23.633Z,6.00
2018-06-08T14:14:52.385Z,6.17
2018-06-08T14:17:21.212Z,5.30
2018-06-08T14:19:49.553Z,5.67
2018-06-08T14:22:18.147Z,5.00
2018-06-08T14:24:46.717Z,5.20
2018-06-08T14:27:15.434Z,6.17
2018-06-08T14:29:44.133Z,5.77
2018-06-08T14:32:12.710Z,6.27
2018-06-08T14:34:41.040Z,5.37
2018-06-08T14:37:09.695Z,5.80
2018-06-08T14:39:38.283Z,6.13
2018-06-08T14:42:07.231Z,5.80
2018-06-08T14:44:35.930Z,6.67
2018-06-08T14:47:05.211Z,5.83
2018-06-08T14:49:34.020Z,6.17
2018-06-08T14:52:02.648Z,6.17
2018-06-08T14:54:31.624Z,5.63
2018-06-08T14:57:00.180Z,5.73
2018-06-08T14:59:28.690Z,5.57
2018-06-08T15:01:57.058Z,6.20
2018-06-08T15:04:25.776Z,6.17
2018-06-08T15:06:54.534Z,6.60
2018-06-08T15:09:23.321Z,6.67
2018-06-08T15:11:51.782Z,6.53
2018-06-08T15:14:20.455Z,7.13
2018-06-08T15:16:49.114Z,6.00
2018-06-08T15:19:17.802Z,6.30
2018-06-08T15:21:46.714Z,6.47
2018-06-08T15:24:15.415Z,7.20
2018-06-08T15:26:44.104Z,6.23
2018-06-08T15:29:12.731Z,6.73
2018-06-08T15:31:41.100Z,7.23
2018-06-08T15:34:09.690Z,6.40
2018-06-08T15:36:38.326Z,7.53
2018-06-08T15:39:07.925Z,6.53
2018-06-08T15:41:36.595Z,6.20
2018-06-08T15:44:05.346Z,7.07
2018-06-08T15:46:33.965Z,6.90
2018-06-08T15:49:03.007Z,6.07
2018-06-08T15:51:31.583Z,6.43
2018-06-08T15:54:00.163Z,6.20
2018-06-08T15:56:28.941Z,6.63
2018-06-08T15:58:57.484Z,6.30
2018-06-08T16:01:26.127Z,6.20
2018-06-08T16:03:55.033Z,6.77
2018-06-08T16:06:23.833Z,6.47
2018-06-08T16:08:52.682Z,6.57
2018-06-08T16:11:21.397Z,6.40
2018-06-08T16:13:50.150Z,6.53
2018-06-08T16:16:18.875Z,6.83
2018-06-08T16:18:47.651Z,7.70
2018-06-08T16:21:16.429Z,7.00
2018-06-08T16:23:45.343Z,8.90
2018-06-08T16:26:14.135Z,8.67
2018-06-08T16:28:42.943Z,8.80
2018-06-08T16:31:11.679Z,11.00
2018-06-08T16:33:40.583Z,7.87
2018-06-08T16:36:09.226Z,6.37
2018-06-08T16:38:38.107Z,7.70
2018-06-08T16:41:06.762Z,7.90
2018-06-08T16:43:35.736Z,7.23
2018-06-08T16:46:04.428Z,8.57
2018-06-08T16:48:33.138Z,8.03
2018-06-08T16:51:01.889Z,7.80
2018-06-08T16:53:30.657Z,7.33
2018-06-08T16:55:59.009Z,8.40
2018-06-08T16:58:28.810Z,7.00
2018-06-08T17:00:57.479Z,7.87
2018-06-08T17:03:26.010Z,8.23
2018-06-08T17:05:54.628Z,7.50
2018-06-08T17:08:23.259Z,7.00
2018-06-08T17:10:52.069Z,7.63
2018-06-08T17:13:20.611Z,6.80
2018-06-08T17:15:49.299Z,7.50
2018-06-08T17:18:18.099Z,7.10
2018-06-08T17:20:46.670Z,7.70
2018-06-08T17:23:15.225Z,6.90
2018-06-08T17:25:43.559Z,7.40
2018-06-08T17:28:13.212Z,8.23
2018-06-08T17:30:41.523Z,7.33
2018-06-08T17:33:10.355Z,7.83
2018-06-08T17:35:39.103Z,7.33
2018-06-08T17:38:08.021Z,7.80
2018-06-08T17:40:36.635Z,7.60
2018-06-08T17:43:05.339Z,7.97
2018-06-08T17:45:33.806Z,7.80
2018-06-08T17:48:02.418Z,8.43
2018-06-08T17:50:31.243Z,7.43
2018-06-08T17:52:59.854Z,7.93
2018-06-08T17:55:28.733Z,8.10
2018-06-08T17:57:57.331Z,7.90
2018-06-08T18:00:25.901Z,7.63
2018-06-08T18:02:54.623Z,7.93
2018-06-08T18:05:23.234Z,7.70
2018-06-08T18:07:51.793Z,8.50
2018-06-08T18:10:20.604Z,7.87
2018-06-08T18:12:48.964Z,7.63
2018-06-08T18:15:17.265Z,7.30
2018-06-08T18:17:46.059Z,8.90
2018-06-08T18:20:14.701Z,9.00
2018-06-08T18:22:43.611Z,8.67
2018-06-08T18:25:12.270Z,7.87
2018-06-08T18:27:41.057Z,9.20
2018-06-08T18:30:10.098Z,8.47
2018-06-08T18:32:38.359Z,8.63
2018-06-08T18:35:06.951Z,9.83
2018-06-08T18:37:35.661Z,8.20
2018-06-08T18:40:04.717Z,10.20
2018-06-08T18:42:33.307Z,9.27
2018-06-08T18:45:01.993Z,9.23
2018-06-08T18:47:30.735Z,9.60
2018-06-08T18:49:59.359Z,9.20
2018-06-08T18:52:27.957Z,8.83
2018-06-08T18:54:56.367Z,9.07
2018-06-08T18:57:25.008Z,8.80
2018-06-08T18:59:53.726Z,9.07
2018-06-08T19:02:22.139Z,8.77
2018-06-08T19:04:50.809Z,8.80
2018-06-08T19:07:19.608Z,9.10
2018-06-08T19:09:49.684Z,8.43
2018-06-08T19:12:18.833Z,8.50
2018-06-08T19:14:47.528Z,9.60
2018-06-08T19:17:16.283Z,9.03
2018-06-08T19:19:44.701Z,10.03
2018-06-08T19:22:13.358Z,9.10
2018-06-08T19:24:42.918Z,9.27
2018-06-08T19:27:11.679Z,8.33
2018-06-08T19:29:40.239Z,9.53
2018-06-08T19:32:09.191Z,9.10
2018-06-08T19:34:37.807Z,9.50
2018-06-08T19:37:06.632Z,8.73
2018-06-08T19:39:35.393Z,9.90
2018-06-08T19:42:04.074Z,9.93
2018-06-08T19:44:32.758Z,8.97
2018-06-08T19:47:01.184Z,9.80
2018-06-08T19:49:30.096Z,10.43
2018-06-08T19:51:58.769Z,9.80
2018-06-08T19:54:27.497Z,11.10
2018-06-08T19:56:56.332Z,10.40
2018-06-08T19:59:25.105Z,10.20
2018-06-08T20:01:54.132Z,10.97
2018-06-08T20:04:22.694Z,10.57
2018-06-08T20:06:51.912Z,10.80
2018-06-08T20:09:20.759Z,10.73
2018-06-08T20:11:49.219Z,10.73
2018-06-08T20:14:17.819Z,11.10
2018-06-08T20:16:46.615Z,11.70
2018-06-08T20:19:15.397Z,10.43
2018-06-08T20:21:44.056Z,11.83
2018-06-08T20:24:12.921Z,14.17
2018-06-08T20:26:41.678Z,20.73
2018-06-08T20:29:10.588Z,19.17
2018-06-08T20:31:39.238Z,23.10
2018-06-08T20:34:08.115Z,22.00
2018-06-08T20:36:37.034Z,20.20
2018-06-08T20:39:07.636Z,19.00
2018-06-08T20:41:36.633Z,18.37
2018-06-08T20:44:05.847Z,17.40
2018-06-08T20:46:35.116Z,17.20
2018-06-08T20:49:04.304Z,16.83
2018-06-08T20:51:33.678Z,17.10
2018-06-08T20:54:02.534Z,14.77
2018-06-08T20:56:31.194Z,14.20
2018-06-08T20:58:59.954Z,13.33
2018-06-08T21:01:28.554Z,14.23
2018-06-08T21:03:57.388Z,14.40
2018-06-08T21:06:26.432Z,14.80
2018-06-08T21:08:55.468Z,12.83
2018-06-08T21:11:24.098Z,13.97
2018-06-08T21:13:52.707Z,13.70
2018-06-08T21:16:21.480Z,13.27
2018-06-08T21:18:50.191Z,13.20
2018-06-08T21:21:18.824Z,13.00
2018-06-08T21:23:47.406Z,12.83
2018-06-08T21:26:16.037Z,13.83
2018-06-08T21:28:44.590Z,13.00
2018-06-08T21:31:12.906Z,12.80
2018-06-08T21:33:41.520Z,15.17
2018-06-08T21:36:10.197Z,12.80
2018-06-08T21:38:38.936Z,12.80
2018-06-08T21:41:07.696Z,14.43
2018-06-08T21:43:36.374Z,14.30
2018-06-08T21:46:05.134Z,13.37
2018-06-08T21:48:33.682Z,14.07
2018-06-08T21:51:02.110Z,14.93
2018-06-08T21:53:30.747Z,14.17
2018-06-08T21:55:59.503Z,14.00
2018-06-08T21:58:28.286Z,14.60
2018-06-08T22:00:57.070Z,13.03
2018-06-08T22:03:25.874Z,13.67
2018-06-08T22:05:54.662Z,14.50
2018-06-08T22:08:23.661Z,14.90
2018-06-08T22:10:52.288Z,14.00
2018-06-08T22:13:20.606Z,15.33
2018-06-08T22:15:49.352Z,15.63
2018-06-08T22:18:17.964Z,15.10
2018-06-08T22:20:46.710Z,16.33
2018-06-08T22:23:15.156Z,14.87
2018-06-08T22:25:43.618Z,14.80
2018-06-08T22:28:12.080Z,14.77
2018-06-08T22:30:40.672Z,14.43
2018-06-08T22:33:09.354Z,15.50
2018-06-08T22:35:38.272Z,14.70
2018-06-08T22:38:06.964Z,14.90
2018-06-08T22:40:35.705Z,14.90
2018-06-08T22:43:04.432Z,15.23
2018-06-08T22:45:33.272Z,15.70
2018-06-08T22:48:02.076Z,16.60
2018-06-08T22:50:30.411Z,17.83
2018-06-08T22:52:59.060Z,18.17
2018-06-08T22:55:27.830Z,15.00
2018-06-08T22:57:56.495Z,16.27
2018-06-08T23:00:25.224Z,15.10
2018-06-08T23:02:54.058Z,16.37
2018-06-08T23:05:22.696Z,15.93
2018-06-08T23:07:51.367Z,16.67
2018-06-08T23:10:20.046Z,15.70
2018-06-08T23:12:48.863Z,17.30
2018-06-08T23:15:17.634Z,15.60
2018-06-08T23:17:46.378Z,17.87
2018-06-08T23:20:15.187Z,14.27
2018-06-08T23:22:43.985Z,16.33
2018-06-08T23:25:12.812Z,14.50
2018-06-08T23:27:41.234Z,17.20
2018-06-08T23:30:10.320Z,15.93
2018-06-08T23:32:39.206Z,17.87
2018-06-08T23:35:08.013Z,17.20
2018-06-08T23:37:36.727Z,17.17
2018-06-08T23:40:05.478Z,15.73
2018-06-08T23:42:34.353Z,15.97
2018-06-08T23:45:03.459Z,16.40
2018-06-08T23:47:32.096Z,15.30
2018-06-08T23:50:00.644Z,17.20
2018-06-08T23:52:29.363Z,17.87
2018-06-08T23:54:58.234Z,18.57
2018-06-08T23:57:26.907Z,17.63
2018-06-08T23:59:55.550Z,16.70
